Terminal Aerodrome Forecast
Issued by NWS

Home | Current Version | Previous Version | Text Only | Print | Product List | Glossary On
Versions: 1 2 3 4 5 6 7 8 9 10 11 12 13 14 15 16 17 18 19 20 21 22 23 24
000
FTUS45 KBOI 051139
TAFJER
TAF
KJER 051139Z 0512/0612 09008KT P6SM -SHRA BKN070 OVC100
     FM051600 26014KT P6SM -SHRA VCTS SCT070CB BKN100
      TEMPO 0516/0520 VRB10G20KT 6SM -TSRA SCT060CB BKN110
     FM052100 26014KT P6SM SCT100 BKN250
     FM060500 18006KT P6SM SCT120=

USA.gov is the U.S. government's official web portal to all federal, state and local government web resources and services.